Time;durP1;ratioP1;P1;durP2;ratioP2;P2;SDS_P1;SDS_P2;PMS_P1;PMS_P2;Temp;Humidity;BMP_temperature;BMP_pressure;BME280_temperature;BME280_humidity;BME280_pressure;Samples;Min_cycle;Max_cycle;Signal;HPM_P1;HPM_P2
2022/11/27 00:00:39;;;;;;;31.35;18.23;;;5.40;99.90;;;;;;4355548;28;10020743;-72
2022/11/27 00:03:05;;;;;;;30.85;18.55;;;5.50;99.90;;;;;;5049441;28;20037;-72
2022/11/27 00:05:30;;;;;;;35.35;20.20;;;5.50;99.90;;;;;;5052411;28;20097;-73
2022/11/27 00:07:56;;;;;;;30.33;19.20;;;5.50;99.90;;;;;;5059787;28;20052;-74
2022/11/27 00:10:22;;;;;;;35.05;18.77;;;5.50;99.90;;;;;;5052061;28;20024;-73
2022/11/27 00:12:48;;;;;;;35.10;19.13;;;5.50;99.90;;;;;;5053571;28;20017;-73
2022/11/27 00:15:14;;;;;;;35.08;19.58;;;5.50;99.90;;;;;;5056285;28;20021;-73
2022/11/27 00:17:39;;;;;;;41.00;20.70;;;5.50;99.90;;;;;;5057148;28;20021;-73
2022/11/27 00:20:06;;;;;;;36.45;21.55;;;5.50;99.90;;;;;;5058435;28;20400;-73
2022/11/27 00:22:31;;;;;;;34.95;20.10;;;5.50;99.90;;;;;;5057574;28;20113;-73
2022/11/27 00:24:57;;;;;;;33.75;20.00;;;5.50;99.90;;;;;;5056304;28;20078;-72
2022/11/27 00:27:23;;;;;;;35.08;19.95;;;5.50;99.90;;;;;;5051785;28;20775;-74
2022/11/27 00:29:49;;;;;;;32.20;18.98;;;5.50;99.90;;;;;;5062346;28;20628;-73
2022/11/27 00:32:15;;;;;;;32.85;19.38;;;;;;;;;;5060360;28;20041;-73
2022/11/27 00:34:41;;;;;;;32.03;18.38;;;;;;;;;;5057110;28;20506;-73
2022/11/27 00:37:07;;;;;;;32.78;18.83;;;;;;;;;;5052788;28;20242;-73
2022/11/27 00:39:33;;;;;;;33.03;19.02;;;;;;;;;;5060150;28;20035;-72
2022/11/27 00:41:59;;;;;;;29.92;17.58;;;;;;;;;;5058862;28;20055;-73
2022/11/27 00:44:25;;;;;;;27.17;17.85;;;;;;;;;;5063447;28;20052;-73
2022/11/27 00:46:51;;;;;;;30.38;18.02;;;;;;;;;;5059755;28;20028;-73
2022/11/27 00:49:17;;;;;;;28.27;16.65;;;;;;;;;;5050400;28;20024;-73
2022/11/27 00:51:43;;;;;;;33.92;17.05;;;;;;;;;;5048488;28;20424;-73
2022/11/27 00:54:09;;;;;;;27.83;16.77;;;;;;;;;;5049602;28;20036;-73
2022/11/27 00:56:36;;;;;;;29.08;17.73;;;;;;;;;;5059960;28;20055;-73
2022/11/27 00:59:03;;;;;;;34.50;17.83;;;;;;;;;;5053109;28;20031;-72
2022/11/27 01:01:41;;;;;;;35.85;17.35;;;;;;;;;;5057268;28;20028;-73
2022/11/27 01:04:08;;;;;;;28.90;16.63;;;;;;;;;;5049957;28;21945;-73
2022/11/27 01:06:35;;;;;;;29.52;16.58;;;;;;;;;;5050813;28;20423;-73
2022/11/27 01:09:01;;;;;;;27.30;16.85;;;;;;;;;;5054876;28;20021;-73
2022/11/27 01:11:28;;;;;;;26.90;16.00;;;;;;;;;;5045786;28;20115;-73
2022/11/27 01:13:55;;;;;;;35.33;16.92;;;;;;;;;;5059471;28;20451;-73
2022/11/27 01:16:23;;;;;;;28.85;15.98;;;;;;;;;;5054750;28;20036;-73
2022/11/27 01:18:50;;;;;;;28.85;15.60;;;;;;;;;;5054567;28;20029;-73
2022/11/27 01:21:18;;;;;;;27.38;14.95;;;;;;;;;;5049703;28;20024;-72
2022/11/27 01:23:44;;;;;;;25.60;14.93;;;;;;;;;;5047357;28;20434;-73
2022/11/27 01:26:10;;;;;;;25.85;14.68;;;;;;;;;;5051187;28;20033;-73
2022/11/27 01:28:38;;;;;;;24.70;14.05;;;;;;;;;;5056786;28;20024;-73
2022/11/27 01:31:24;;;;;;;24.38;14.50;;;;;;;;;;5059321;28;20044;-74
2022/11/27 01:33:57;;;;;;;23.15;14.10;;;;;;;;;;5048841;28;20028;-73
2022/11/27 01:36:23;;;;;;;27.75;14.85;;;;;;;;;;5056634;28;20032;-73
2022/11/27 01:38:49;;;;;;;24.95;14.15;;;;;;;;;;5053060;28;20161;-73
2022/11/27 01:41:18;;;;;;;23.48;13.25;;;;;;;;;;5046902;28;20047;-73
2022/11/27 01:43:52;;;;;;;21.60;13.23;;;;;;;;;;5041660;28;20040;-73
2022/11/27 01:46:33;;;;;;;25.48;13.57;;;;;;;;;;5046535;28;20441;-73
2022/11/27 01:49:11;;;;;;;22.77;13.20;;;;;;;;;;5056987;28;20089;-73
2022/11/27 01:51:49;;;;;;;23.38;12.35;;;;;;;;;;5058917;28;20111;-73
2022/11/27 01:54:15;;;;;;;22.88;11.55;;;;;;;;;;5054658;28;20071;-73
2022/11/27 01:56:43;;;;;;;19.95;12.00;;;;;;;;;;5061216;28;20670;-73
2022/11/27 01:59:09;;;;;;;21.67;12.35;;;;;;;;;;5048201;28;20060;-73
2022/11/27 02:01:35;;;;;;;21.33;11.98;;;;;;;;;;5056571;28;20765;-73
2022/11/27 02:04:01;;;;;;;23.35;12.18;;;;;;;;;;5046952;28;20161;-73
2022/11/27 02:06:27;;;;;;;21.92;11.15;;;;;;;;;;5050324;28;20163;-73
2022/11/27 02:08:54;;;;;;;26.85;12.15;;;;;;;;;;5058132;28;20056;-73
2022/11/27 02:11:26;;;;;;;22.27;12.60;;;;;;;;;;5057048;28;20021;-73
2022/11/27 02:14:16;;;;;;;15.73;9.20;;;;;;;;;;5050683;28;20411;-73
2022/11/27 02:16:55;;;;;;;21.00;12.40;;;5.40;99.90;;;;;;5046454;28;20036;-73
2022/11/27 02:20:03;;;;;;;18.73;11.50;;;5.40;99.90;;;;;;5051866;28;20035;-73
2022/11/27 02:22:38;;;;;;;20.98;12.75;;;5.40;99.90;;;;;;5016618;28;20040;-73
2022/11/27 02:25:20;;;;;;;21.90;13.27;;;5.40;99.90;;;;;;5057663;28;20047;-73
2022/11/27 02:28:01;;;;;;;22.63;13.93;;;5.40;99.90;;;;;;5056399;28;20387;-73
2022/11/27 02:30:32;;;;;;;23.20;13.93;;;5.40;99.90;;;;;;5059113;28;20024;-72
2022/11/27 02:33:01;;;;;;;25.60;14.68;;;5.40;99.90;;;;;;5056869;28;20450;-73
2022/11/27 02:35:30;;;;;;;23.98;14.30;;;5.40;99.90;;;;;;5061050;28;20029;-72
2022/11/27 02:38:05;;;;;;;27.08;13.85;;;5.30;99.90;;;;;;5058985;28;20090;-74
2022/11/27 02:40:45;;;;;;;25.38;14.30;;;5.30;99.90;;;;;;5052751;28;20360;-73
2022/11/27 02:43:15;;;;;;;24.50;14.30;;;5.30;99.90;;;;;;5058738;28;20032;-73
2022/11/27 02:45:44;;;;;;;25.73;14.02;;;5.30;99.90;;;;;;5056765;28;20485;-73
2022/11/27 02:48:12;;;;;;;28.52;15.13;;;5.30;99.90;;;;;;5058449;28;20029;-73
2022/11/27 02:50:40;;;;;;;25.15;14.77;;;5.30;99.90;;;;;;5056119;28;20127;-73
2022/11/27 02:53:11;;;;;;;22.83;14.27;;;5.20;99.90;;;;;;5057114;28;20070;-73
2022/11/27 02:55:39;;;;;;;26.33;15.40;;;5.20;99.90;;;;;;5057038;28;20035;-73
2022/11/27 02:58:09;;;;;;;24.75;14.10;;;5.20;99.90;;;;;;5050864;28;20029;-73
2022/11/27 03:00:35;;;;;;;20.45;14.13;;;5.20;99.90;;;;;;5048864;28;20082;-73
2022/11/27 03:03:06;;;;;;;23.50;14.35;;;5.20;99.90;;;;;;5042192;28;20165;-72
2022/11/27 03:05:37;;;;;;;21.95;13.98;;;5.20;99.90;;;;;;5038704;28;20101;-73
2022/11/27 03:08:24;;;;;;;19.85;12.68;;;5.20;99.90;;;;;;5068353;28;20021;-72
2022/11/27 03:10:56;;;;;;;21.88;13.98;;;5.20;99.90;;;;;;5056584;28;20392;-73
2022/11/27 03:13:22;;;;;;;28.90;14.43;;;5.20;99.90;;;;;;5062767;28;20434;-73
2022/11/27 03:16:13;;;;;;;22.65;13.80;;;5.20;99.90;;;;;;5050920;28;20020;-73
2022/11/27 03:18:46;;;;;;;23.77;14.02;;;5.20;99.90;;;;;;5045519;28;20675;-73
2022/11/27 03:21:25;;;;;;;21.15;13.15;;;5.20;99.90;;;;;;5064917;28;20040;-73
2022/11/27 03:23:50;;;;;;;20.70;12.32;;;5.20;99.90;;;;;;5052923;28;20039;-73
2022/11/27 03:26:16;;;;;;;21.98;13.02;;;5.20;99.90;;;;;;5061593;28;20388;-73
2022/11/27 03:28:44;;;;;;;19.63;12.38;;;5.20;99.90;;;;;;5061245;28;20033;-73
2022/11/27 03:31:11;;;;;;;22.77;13.43;;;5.20;99.90;;;;;;5068090;28;20048;-73
2022/11/27 03:33:37;;;;;;;24.20;13.63;;;5.20;99.90;;;;;;5057683;28;20040;-73
2022/11/27 03:36:11;;;;;;;25.85;13.27;;;5.20;99.90;;;;;;5059755;28;20027;-73
2022/11/27 03:38:37;;;;;;;25.40;13.00;;;5.20;99.90;;;;;;5065105;28;20020;-73
2022/11/27 03:41:19;;;;;;;25.52;12.90;;;5.30;99.90;;;;;;5056549;28;20618;-73
2022/11/27 03:44:23;;;;;;;25.50;14.07;;;5.30;99.90;;;;;;5052641;28;20110;-73
2022/11/27 03:46:57;;;;;;;29.08;13.52;;;5.30;99.90;;;;;;5051954;28;20384;-73
2022/11/27 03:49:32;;;;;;;24.13;13.98;;;5.40;99.90;;;;;;5069871;28;20028;-73
2022/11/27 03:52:21;;;;;;;24.05;14.02;;;5.40;99.90;;;;;;5061390;28;20116;-74
2022/11/27 03:55:12;;;;;;;24.20;12.90;;;5.40;99.90;;;;;;5051350;28;20020;-73
2022/11/27 03:57:53;;;;;;;23.98;12.52;;;5.40;99.90;;;;;;5054544;28;20104;-73
2022/11/27 04:00:19;;;;;;;22.42;12.75;;;5.40;99.90;;;;;;5053114;28;20037;-73
2022/11/27 04:02:50;;;;;;;26.75;12.98;;;5.40;99.90;;;;;;5052950;28;20046;-73
2022/11/27 04:05:16;;;;;;;24.67;14.10;;;5.40;99.90;;;;;;5053450;28;22883;-73
2022/11/27 04:07:41;;;;;;;27.60;13.30;;;5.30;99.90;;;;;;5051102;28;20116;-73
2022/11/27 04:10:08;;;;;;;23.48;13.70;;;5.40;99.90;;;;;;5054511;28;20580;-73
2022/11/27 04:12:34;;;;;;;26.45;14.30;;;5.30;99.90;;;;;;5056177;28;20043;-73
2022/11/27 04:14:59;;;;;;;27.48;13.95;;;5.40;99.90;;;;;;5053119;28;20481;-73
2022/11/27 04:17:25;;;;;;;24.25;14.15;;;5.30;99.90;;;;;;5053574;28;20043;-72
2022/11/27 04:19:51;;;;;;;24.48;13.80;;;5.40;99.90;;;;;;5053399;28;20021;-72
2022/11/27 04:22:17;;;;;;;25.48;13.15;;;5.30;99.90;;;;;;5059008;28;20025;-73
2022/11/27 04:24:42;;;;;;;23.10;12.18;;;5.40;99.90;;;;;;5059808;28;20118;-73
2022/11/27 04:27:08;;;;;;;19.67;12.32;;;5.40;99.90;;;;;;5053084;28;20525;-73
2022/11/27 04:29:35;;;;;;;21.08;11.82;;;5.30;99.90;;;;;;5062817;28;20028;-73
2022/11/27 04:32:01;;;;;;;24.63;11.82;;;5.30;99.90;;;;;;5044440;28;20444;-73
2022/11/27 04:34:27;;;;;;;20.67;10.80;;;5.30;99.90;;;;;;5037607;28;20019;-73
2022/11/27 04:36:53;;;;;;;19.17;10.73;;;5.30;99.90;;;;;;5038537;28;20588;-73
2022/11/27 04:39:19;;;;;;;18.35;10.98;;;5.30;99.90;;;;;;5036740;28;20041;-73
2022/11/27 04:41:44;;;;;;;17.80;11.38;;;5.30;99.90;;;;;;5033043;28;20112;-73
2022/11/27 04:44:11;;;;;;;24.48;12.38;;;5.30;99.90;;;;;;5032747;28;20029;-73
2022/11/27 04:46:36;;;;;;;19.83;11.48;;;5.30;99.90;;;;;;5034653;28;20057;-73
2022/11/27 04:49:02;;;;;;;22.40;11.88;;;5.30;99.90;;;;;;5039402;28;20111;-72
2022/11/27 04:51:28;;;;;;;21.92;11.48;;;5.40;99.90;;;;;;5036442;28;20479;-73
2022/11/27 04:53:53;;;;;;;19.65;11.75;;;5.40;99.90;;;;;;5028822;28;20589;-73
2022/11/27 04:56:19;;;;;;;19.20;12.07;;;5.40;99.90;;;;;;5030342;28;20480;-73
2022/11/27 04:58:45;;;;;;;22.95;12.32;;;5.30;99.90;;;;;;5034213;28;20028;-73
2022/11/27 05:01:10;;;;;;;19.35;11.50;;;5.30;99.90;;;;;;5036727;28;20109;-73
2022/11/27 05:03:36;;;;;;;19.30;11.75;;;5.30;99.90;;;;;;5031969;28;20047;-73
2022/11/27 05:06:02;;;;;;;21.70;12.70;;;5.30;99.90;;;;;;5029586;28;20040;-73
2022/11/27 05:08:29;;;;;;;24.25;12.68;;;5.30;99.90;;;;;;5038721;28;20025;-73
2022/11/27 05:11:11;;;;;;;20.83;12.77;;;5.30;99.90;;;;;;5030727;28;20047;-73
2022/11/27 05:13:37;;;;;;;21.95;13.00;;;5.30;99.90;;;;;;5042022;28;20009;-73
2022/11/27 05:16:03;;;;;;;20.85;12.65;;;5.30;99.90;;;;;;5028250;28;20656;-73
2022/11/27 05:18:29;;;;;;;24.80;13.20;;;5.30;99.90;;;;;;5032124;28;20485;-73
2022/11/27 05:21:01;;;;;;;25.48;12.65;;;5.30;99.90;;;;;;5033643;28;20028;-73
2022/11/27 05:23:27;;;;;;;24.67;13.25;;;5.30;99.90;;;;;;5034182;28;20030;-73
2022/11/27 05:25:53;;;;;;;27.95;15.00;;;5.40;99.90;;;;;;5036574;28;20082;-73
2022/11/27 05:28:19;;;;;;;27.92;15.07;;;5.40;99.90;;;;;;5030473;28;20080;-73
2022/11/27 05:30:45;;;;;;;28.40;15.05;;;5.40;99.90;;;;;;5036862;28;20017;-72
2022/11/27 05:33:11;;;;;;;29.23;14.90;;;5.40;99.90;;;;;;5047868;28;20113;-73
2022/11/27 05:35:37;;;;;;;27.00;14.80;;;5.40;99.90;;;;;;5055521;28;20036;-73
2022/11/27 05:38:03;;;;;;;29.92;15.48;;;5.30;99.90;;;;;;5061824;28;20021;-73
2022/11/27 05:40:29;;;;;;;25.52;13.57;;;5.40;99.90;;;;;;5054033;28;20025;-72
2022/11/27 05:42:54;;;;;;;23.90;12.73;;;5.30;99.90;;;;;;5057869;28;20483;-73
2022/11/27 05:45:20;;;;;;;21.42;12.60;;;5.30;99.90;;;;;;5058343;28;20021;-73
2022/11/27 05:47:45;;;;;;;21.30;11.80;;;5.30;99.90;;;;;;5061854;28;20361;-73
2022/11/27 05:50:11;;;;;;;23.23;11.90;;;5.30;99.90;;;;;;5056947;28;20376;-73
2022/11/27 05:52:37;;;;;;;24.55;13.52;;;5.20;99.90;;;;;;5047362;28;20112;-73
2022/11/27 05:55:03;;;;;;;24.80;12.75;;;5.20;99.90;;;;;;5049989;28;20440;-73
2022/11/27 05:57:29;;;;;;;19.58;12.73;;;5.20;99.90;;;;;;5052503;28;20058;-73
2022/11/27 05:59:56;;;;;;;21.77;12.82;;;5.20;99.90;;;;;;5055765;28;20052;-73
2022/11/27 06:02:22;;;;;;;23.75;12.00;;;5.20;99.90;;;;;;5048503;28;20101;-73
2022/11/27 06:04:48;;;;;;;17.10;11.65;;;5.30;99.90;;;;;;5054771;28;20031;-73
2022/11/27 06:07:14;;;;;;;22.98;12.48;;;5.30;99.90;;;;;;5059855;28;20028;-73
2022/11/27 06:09:39;;;;;;;21.83;12.10;;;5.30;99.90;;;;;;5051254;28;20056;-73
2022/11/27 06:12:05;;;;;;;23.33;13.82;;;5.40;99.90;;;;;;5048163;28;20077;-73
2022/11/27 06:14:33;;;;;;;25.90;14.93;;;5.40;99.90;;;;;;5053168;28;20516;-73
2022/11/27 06:17:00;;;;;;;28.77;16.20;;;5.30;99.90;;;;;;5053173;28;20116;-73
2022/11/27 06:19:25;;;;;;;35.65;20.23;;;5.30;99.90;;;;;;5057775;28;20060;-73
2022/11/27 06:21:51;;;;;;;26.42;17.08;;;5.30;99.90;;;;;;5052132;28;20061;-73
2022/11/27 06:24:17;;;;;;;26.15;18.60;;;5.30;99.90;;;;;;5049280;28;20037;-74
2022/11/27 06:26:42;;;;;;;26.30;17.48;;;5.20;99.90;;;;;;5056809;28;20025;-73
2022/11/27 06:29:09;;;;;;;32.72;18.67;;;5.20;99.90;;;;;;5052954;28;20025;-73
2022/11/27 06:31:34;;;;;;;28.58;16.75;;;5.20;99.90;;;;;;5053378;28;20408;-74
2022/11/27 06:34:01;;;;;;;28.95;17.30;;;5.10;99.90;;;;;;5053584;28;21420;-73
2022/11/27 06:36:30;;;;;;;31.98;18.30;;;5.10;99.90;;;;;;5050954;28;20073;-74
2022/11/27 06:38:55;;;;;;;31.10;17.95;;;5.10;99.90;;;;;;5054402;28;20114;-73
2022/11/27 06:41:23;;;;;;;32.03;17.75;;;5.10;99.90;;;;;;5050694;28;20583;-73
2022/11/27 06:43:49;;;;;;;30.42;17.13;;;5.10;99.90;;;;;;5050087;28;20388;-74
2022/11/27 06:46:17;;;;;;;28.42;17.40;;;5.10;99.90;;;;;;5038266;28;20032;-73
2022/11/27 06:48:45;;;;;;;29.27;16.27;;;5.10;99.90;;;;;;5040946;28;20116;-73
2022/11/27 06:51:12;;;;;;;27.70;15.85;;;;;;;;;;5044060;28;20020;-72
2022/11/27 06:53:39;;;;;;;25.05;15.63;;;;;;;;;;5057600;28;20035;-73
2022/11/27 06:56:09;;;;;;;33.17;17.45;;;;;;;;;;5055236;28;20044;-72
2022/11/27 06:58:35;;;;;;;30.80;17.70;;;;;;;;;;5048648;28;20036;-72
2022/11/27 07:01:03;;;;;;;29.63;15.88;;;;;;;;;;5051210;28;20032;-73
2022/11/27 07:03:29;;;;;;;26.77;14.85;;;;;;;;;;5048634;28;20098;-72
2022/11/27 07:05:55;;;;;;;25.08;14.55;;;;;;;;;;5050022;28;20502;-73
2022/11/27 07:08:21;;;;;;;30.67;15.27;;;;;;;;;;5054206;28;20029;-72
2022/11/27 07:10:47;;;;;;;26.33;14.65;;;;;;;;;;5056609;28;20031;-74
2022/11/27 07:13:13;;;;;;;27.10;16.15;;;;;;;;;;5057382;28;20091;-74
2022/11/27 07:15:39;;;;;;;27.60;14.82;;;;;;;;;;5057016;28;20078;-75
2022/11/27 07:18:05;;;;;;;24.05;14.55;;;5.40;99.90;;;;;;5046839;28;20060;-76
2022/11/27 07:20:31;;;;;;;24.58;14.00;;;5.40;99.90;;;;;;5043757;28;20424;-75
2022/11/27 07:22:56;;;;;;;28.77;15.95;;;5.40;99.90;;;;;;5043973;28;20405;-75
2022/11/27 07:25:22;;;;;;;28.10;14.77;;;5.30;99.90;;;;;;5058743;28;20249;-75
2022/11/27 07:27:48;;;;;;;38.53;21.98;;;5.40;99.90;;;;;;5061797;28;20128;-75
2022/11/27 07:30:14;;;;;;;39.88;22.38;;;5.30;99.90;;;;;;5061016;28;20404;-77
2022/11/27 07:32:39;;;;;;;44.13;24.85;;;5.30;99.90;;;;;;5059989;28;20103;-75
2022/11/27 07:35:06;;;;;;;50.22;27.58;;;5.40;99.90;;;;;;5059341;28;20417;-76
2022/11/27 07:37:32;;;;;;;42.45;24.42;;;5.40;99.90;;;;;;5050121;28;20042;-76
2022/11/27 07:39:58;;;;;;;25.58;16.90;;;5.40;99.90;;;;;;5044520;28;20289;-75
2022/11/27 07:42:24;;;;;;;24.00;14.55;;;5.40;99.90;;;;;;5032824;28;21360;-74
2022/11/27 07:44:50;;;;;;;24.77;14.27;;;5.30;99.90;;;;;;5046076;28;20104;-73
2022/11/27 07:47:15;;;;;;;24.10;14.73;;;5.30;99.90;;;;;;4335068;28;10000953;-74
2022/11/27 07:49:41;;;;;;;22.88;13.85;;;5.30;99.90;;;;;;5023466;28;20162;-74
2022/11/27 07:52:06;;;;;;;21.50;12.88;;;5.30;99.90;;;;;;5026890;28;20037;-74
2022/11/27 07:54:33;;;;;;;20.63;13.45;;;5.30;99.90;;;;;;5025864;28;20082;-74
2022/11/27 07:56:59;;;;;;;25.20;15.02;;;5.30;99.90;;;;;;5034267;28;20041;-74
2022/11/27 07:59:25;;;;;;;22.98;14.43;;;5.40;99.90;;;;;;5033970;28;20043;-74
2022/11/27 08:01:50;;;;;;;23.10;14.30;;;5.40;99.90;;;;;;5035344;28;20070;-73
2022/11/27 08:04:16;;;;;;;22.65;14.68;;;5.40;99.90;;;;;;5031106;28;20147;-74
2022/11/27 08:06:42;;;;;;;23.08;14.20;;;5.30;99.90;;;;;;5029774;28;20506;-74
2022/11/27 08:09:07;;;;;;;23.75;14.57;;;5.30;99.90;;;;;;5022886;28;20036;-74
2022/11/27 08:11:34;;;;;;;21.90;13.57;;;5.30;99.90;;;;;;5032907;28;20019;-73
2022/11/27 08:14:03;;;;;;;22.73;13.23;;;5.30;99.90;;;;;;5032027;28;20242;-73
2022/11/27 08:16:30;;;;;;;22.17;13.40;;;5.40;99.90;;;;;;5025296;28;20033;-74
2022/11/27 08:18:56;;;;;;;22.58;13.77;;;;;;;;;;5049714;28;20395;-74
2022/11/27 08:21:23;;;;;;;24.35;14.25;;;;;;;;;;5044125;28;20535;-74
2022/11/27 08:23:49;;;;;;;23.05;13.68;;;;;;;;;;5049786;28;20463;-74
2022/11/27 08:26:15;;;;;;;23.55;13.93;;;;;;;;;;5048425;28;20089;-74
2022/11/27 08:28:41;;;;;;;24.08;13.48;;;;;;;;;;5051377;28;20342;-74
2022/11/27 08:31:08;;;;;;;24.80;13.07;;;;;;;;;;5044936;28;20044;-74
2022/11/27 08:33:35;;;;;;;25.35;13.50;;;;;;;;;;5046829;28;20024;-74
2022/11/27 08:36:01;;;;;;;22.63;12.93;;;;;;;;;;5043207;28;20737;-74
2022/11/27 08:38:27;;;;;;;24.00;13.73;;;;;;;;;;5042767;28;20040;-74
2022/11/27 08:40:56;;;;;;;23.90;13.32;;;;;;;;;;5054043;28;20449;-74
2022/11/27 08:43:23;;;;;;;33.05;18.30;;;;;;;;;;5050854;28;20374;-74
2022/11/27 08:45:49;;;;;;;21.95;14.07;;;;;;;;;;5047054;28;20417;-75
2022/11/27 08:48:15;;;;;;;23.10;13.68;;;;;;;;;;5042655;28;20032;-74
2022/11/27 08:50:41;;;;;;;20.23;13.30;;;;;;;;;;5046634;28;20616;-74
2022/11/27 08:53:07;;;;;;;22.52;13.50;;;;;;;;;;5038867;28;20562;-74
2022/11/27 08:55:33;;;;;;;19.70;12.25;;;;;;;;;;5038314;28;20377;-73
2022/11/27 08:57:59;;;;;;;21.55;13.10;;;;;;;;;;5046860;28;20043;-74
2022/11/27 09:00:25;;;;;;;20.58;12.05;;;;;;;;;;5048824;28;20112;-74
2022/11/27 09:02:51;;;;;;;18.38;11.38;;;;;;;;;;5041167;28;20037;-74
2022/11/27 09:05:17;;;;;;;19.10;11.65;;;;;;;;;;5044291;28;20029;-74
2022/11/27 09:07:43;;;;;;;26.08;13.43;;;;;;;;;;5035678;28;20049;-74
2022/11/27 09:10:09;;;;;;;20.42;12.70;;;;;;;;;;5044678;28;20148;-73
2022/11/27 09:12:35;;;;;;;24.92;12.85;;;;;;;;;;5047372;28;20436;-73
2022/11/27 09:15:01;;;;;;;21.63;13.35;;;;;;;;;;5040724;28;20040;-73
2022/11/27 09:17:27;;;;;;;23.60;13.25;;;;;;;;;;5046119;28;20021;-74
2022/11/27 09:19:53;;;;;;;23.85;14.23;;;;;;;;;;5045668;28;20498;-74
2022/11/27 09:22:19;;;;;;;25.70;16.08;;;;;;;;;;5044177;28;20044;-73
2022/11/27 09:24:45;;;;;;;32.55;19.20;;;;;;;;;;5043766;28;20410;-73
2022/11/27 09:27:11;;;;;;;27.35;16.52;;;;;;;;;;5045394;28;20036;-73
2022/11/27 09:29:37;;;;;;;25.50;14.30;;;;;;;;;;5042931;28;20399;-73
2022/11/27 09:32:03;;;;;;;25.23;12.95;;;;;;;;;;5042494;28;20037;-73
2022/11/27 09:34:30;;;;;;;22.60;13.20;;;;;;;;;;5046309;28;20036;-73
2022/11/27 09:36:56;;;;;;;29.02;13.70;;;;;;;;;;5042294;28;20037;-73
2022/11/27 09:39:22;;;;;;;23.70;13.48;;;6.20;99.90;;;;;;5036870;28;20081;-74
2022/11/27 09:41:53;;;;;;;24.58;14.55;;;6.20;99.90;;;;;;5049046;28;20629;-73
2022/11/27 09:44:30;;;;;;;24.52;14.00;;;6.30;99.90;;;;;;5040465;28;20052;-73
2022/11/27 09:47:00;;;;;;;22.38;12.82;;;6.30;99.90;;;;;;5046632;28;20024;-73
2022/11/27 09:49:38;;;;;;;19.85;12.25;;;6.30;99.90;;;;;;5050663;28;20452;-73
2022/11/27 09:52:17;;;;;;;22.42;13.05;;;6.30;99.90;;;;;;5042927;28;20485;-73
2022/11/27 09:54:55;;;;;;;24.55;12.88;;;6.30;99.90;;;;;;5047666;28;20379;-74
2022/11/27 09:57:33;;;;;;;20.67;12.88;;;6.40;99.90;;;;;;5046638;28;20063;-73
2022/11/27 10:00:10;;;;;;;20.85;13.10;;;6.40;99.90;;;;;;5046318;28;20104;-74
2022/11/27 10:02:36;;;;;;;23.08;13.02;;;6.40;99.90;;;;;;5045921;28;20519;-73
2022/11/27 10:05:15;;;;;;;22.05;13.98;;;6.50;99.90;;;;;;5039258;28;20020;-74
2022/11/27 10:08:04;;;;;;;27.40;13.48;;;6.50;99.90;;;;;;5041330;28;20115;-73
2022/11/27 10:10:33;;;;;;;23.92;13.75;;;6.60;99.90;;;;;;5045010;28;20036;-74
2022/11/27 10:13:10;;;;;;;24.48;12.70;;;6.60;99.90;;;;;;5049799;28;20028;-74
2022/11/27 10:15:56;;;;;;;21.13;12.18;;;6.70;99.90;;;;;;5048578;28;20325;-74
2022/11/27 10:18:36;;;;;;;27.02;13.77;;;6.70;99.90;;;;;;5043116;28;20029;-74
2022/11/27 10:21:20;;;;;;;25.55;12.93;;;6.70;99.90;;;;;;5048375;28;20056;-74
2022/11/27 10:23:54;;;;;;;18.20;10.85;;;6.80;99.90;;;;;;5045559;28;20032;-73
2022/11/27 10:26:43;;;;;;;22.33;13.20;;;6.80;99.90;;;;;;5043663;28;20044;-73
2022/11/27 10:29:35;;;;;;;19.80;12.30;;;6.90;99.90;;;;;;5035950;28;20717;-73
2022/11/27 10:32:09;;;;;;;23.92;13.18;;;6.80;99.90;;;;;;5047893;28;20059;-73
2022/11/27 10:34:41;;;;;;;19.58;12.45;;;6.90;99.90;;;;;;5044210;28;20025;-73
2022/11/27 10:37:29;;;;;;;20.27;12.45;;;6.90;99.90;;;;;;5052931;28;20170;-73
2022/11/27 10:40:13;;;;;;;19.33;12.52;;;6.90;99.90;;;;;;5055982;28;20024;-73
2022/11/27 10:42:58;;;;;;;19.83;12.48;;;6.90;99.90;;;;;;5048341;28;20035;-73
2022/11/27 10:45:33;;;;;;;20.63;12.48;;;;;;;;;;5046127;28;20040;-73
2022/11/27 10:47:59;;;;;;;20.58;12.93;;;;;;;;;;5051977;28;20428;-72
2022/11/27 10:50:25;;;;;;;17.45;11.32;;;;;;;;;;5050075;28;20024;-72
2022/11/27 10:52:51;;;;;;;23.20;12.55;;;;;;;;;;5059085;28;20393;-72
2022/11/27 10:55:22;;;;;;;18.42;11.93;;;;;;;;;;5056704;28;20451;-72
2022/11/27 10:57:55;;;;;;;19.10;11.75;;;;;;;;;;5063649;28;20025;-73
2022/11/27 11:00:25;;;;;;;24.23;12.93;;;;;;;;;;5060572;28;20028;-73
2022/11/27 11:03:02;;;;;;;21.00;12.02;;;;;;;;;;5055526;28;20412;-72
2022/11/27 11:05:29;;;;;;;23.58;13.23;;;;;;;;;;5057698;28;20040;-73
2022/11/27 11:07:58;;;;;;;19.60;11.93;;;;;;;;;;5057127;28;20984;-73
2022/11/27 11:10:26;;;;;;;20.90;11.32;;;;;;;;;;5065539;28;20109;-73
2022/11/27 11:13:11;;;;;;;17.02;10.30;;;;;;;;;;5057906;28;20047;-72
2022/11/27 11:15:46;;;;;;;18.88;10.60;;;;;;;;;;5057289;28;20090;-73
2022/11/27 11:18:19;;;;;;;18.95;10.70;;;;;;;;;;5057996;28;20473;-72
2022/11/27 11:20:45;;;;;;;;;;;;;;;;;;5045458;28;20028;-74
2022/11/27 11:23:20;;;;;;;17.58;10.32;;;;;;;;;;5059104;28;20326;-74
2022/11/27 11:25:50;;;;;;;14.95;9.85;;;;;;;;;;5049801;28;20021;-73
2022/11/27 11:28:18;;;;;;;14.82;10.27;;;;;;;;;;5061843;28;20031;-73
2022/11/27 11:30:51;;;;;;;31.55;18.05;;;;;;;;;;5046792;28;20055;-73
2022/11/27 11:33:17;;;;;;;25.58;15.38;;;;;;;;;;5051220;28;20036;-73
2022/11/27 11:35:50;;;;;;;18.17;10.82;;;;;;;;;;5049049;28;20122;-73
2022/11/27 11:38:18;;;;;;;15.10;9.35;;;;;;;;;;5057172;28;20116;-72
2022/11/27 11:40:56;;;;;;;14.15;8.85;;;;;;;;;;5055486;28;20090;-73
2022/11/27 11:43:26;;;;;;;17.27;9.02;;;;;;;;;;5053268;28;20036;-73
2022/11/27 11:45:52;;;;;;;24.05;14.85;;;;;;;;;;5053674;28;20031;-73
2022/11/27 11:48:26;;;;;;;14.57;9.50;;;;;;;;;;5061048;28;20035;-73
2022/11/27 11:50:54;;;;;;;16.58;8.35;;;;;;;;;;5050101;28;20035;-73
2022/11/27 11:53:30;;;;;;;14.65;8.70;;;;;;;;;;5055067;28;20024;-73
2022/11/27 11:56:05;;;;;;;14.27;8.25;;;;;;;;;;5044784;28;20035;-73
2022/11/27 11:58:34;;;;;;;11.95;8.60;;;;;;;;;;5049895;28;20021;-73
2022/11/27 12:01:06;;;;;;;12.75;8.38;;;;;;;;;;5051747;28;20097;-73
2022/11/27 12:03:41;;;;;;;12.00;7.68;;;;;;;;;;5052514;28;20025;-73
2022/11/27 12:06:07;;;;;;;13.02;7.38;;;;;;;;;;5054644;28;20028;-73
2022/11/27 12:08:41;;;;;;;12.93;6.57;;;;;;;;;;5063187;28;20401;-73
2022/11/27 12:11:10;;;;;;;9.52;5.40;;;;;;;;;;5055014;28;20098;-73
2022/11/27 12:13:37;;;;;;;8.88;5.22;;;;;;;;;;5048905;28;20125;-75
2022/11/27 12:16:09;;;;;;;13.35;5.70;;;;;;;;;;5058841;28;20114;-71
2022/11/27 12:18:59;;;;;;;7.95;5.00;;;8.40;99.90;;;;;;5047802;28;20417;-71
2022/11/27 12:21:35;;;;;;;12.40;6.53;;;8.40;99.90;;;;;;5042653;28;20025;-71
2022/11/27 12:24:12;;;;;;;11.93;5.97;;;8.40;99.90;;;;;;5052336;28;20489;-71
2022/11/27 12:26:50;;;;;;;10.15;5.10;;;8.40;99.90;;;;;;5048576;28;20036;-71
2022/11/27 12:29:27;;;;;;;8.82;4.35;;;8.50;99.90;;;;;;5053565;28;20036;-71
2022/11/27 12:32:16;;;;;;;10.23;5.72;;;8.50;99.90;;;;;;5053417;28;20044;-71
2022/11/27 12:35:20;;;;;;;8.43;5.05;;;8.50;99.90;;;;;;5041648;28;20029;-71
2022/11/27 12:38:10;;;;;;;11.20;5.40;;;8.50;99.90;;;;;;5042120;28;20023;-72
2022/11/27 12:41:03;;;;;;;8.93;4.72;;;8.60;99.90;;;;;;5054604;28;20165;-71
2022/11/27 12:43:37;;;;;;;8.43;4.65;;;8.60;99.90;;;;;;5055396;28;20476;-71
2022/11/27 12:46:25;;;;;;;9.52;4.30;;;8.60;99.90;;;;;;5041526;28;20138;-72
2022/11/27 12:48:54;;;;;;;9.00;4.43;;;8.60;99.90;;;;;;5045356;28;20027;-71
2022/11/27 12:51:25;;;;;;;7.82;4.00;;;8.50;99.90;;;;;;5050131;28;20062;-71
2022/11/27 12:54:01;;;;;;;10.35;4.18;;;8.50;99.90;;;;;;5057440;28;20052;-71
2022/11/27 12:56:32;;;;;;;9.25;5.03;;;8.50;99.90;;;;;;5050508;28;20086;-71
2022/11/27 12:59:26;;;;;;;10.00;6.10;;;8.50;99.90;;;;;;5047239;28;20024;-71
2022/11/27 13:02:00;;;;;;;8.75;4.95;;;8.50;99.90;;;;;;5045058;28;20039;-71
2022/11/27 13:04:41;;;;;;;6.38;3.70;;;8.50;99.90;;;;;;5047850;28;20091;-71
2022/11/27 13:07:22;;;;;;;7.95;4.00;;;8.50;99.90;;;;;;5040714;28;20035;-71
2022/11/27 13:10:01;;;;;;;7.25;3.30;;;8.50;99.90;;;;;;5049531;28;20314;-71
2022/11/27 13:12:38;;;;;;;6.63;3.25;;;8.50;99.90;;;;;;5043738;28;20516;-71
2022/11/27 13:15:17;;;;;;;7.13;3.00;;;8.50;99.90;;;;;;5041419;28;20060;-72
2022/11/27 13:17:48;;;;;;;8.55;3.10;;;8.50;99.90;;;;;;5046769;28;20098;-72
2022/11/27 13:20:28;;;;;;;6.90;3.10;;;8.50;99.90;;;;;;5041075;28;20048;-71
2022/11/27 13:22:54;;;;;;;5.90;3.20;;;8.50;99.90;;;;;;5048992;28;20058;-71
2022/11/27 13:25:21;;;;;;;5.55;2.95;;;8.50;99.90;;;;;;5045638;28;20535;-72
2022/11/27 13:27:49;;;;;;;6.63;3.50;;;8.50;99.90;;;;;;5040476;28;20127;-71
2022/11/27 13:30:29;;;;;;;10.98;3.75;;;8.50;99.90;;;;;;5050610;28;20472;-71